createdAt,value
2018-10-01T00:02:14.240Z,3.80
2018-10-01T00:07:17.432Z,4.23
2018-10-01T00:12:20.647Z,3.90
2018-10-01T00:17:23.885Z,4.50
2018-10-01T00:22:32.388Z,4.17
2018-10-01T00:27:35.590Z,4.20
2018-10-01T00:32:38.832Z,4.23
2018-10-01T00:37:42.044Z,3.90
2018-10-01T00:42:45.300Z,3.93
2018-10-01T00:47:48.491Z,3.83
2018-10-01T00:52:51.783Z,4.30
2018-10-01T00:57:55.064Z,4.20
2018-10-01T01:02:58.315Z,4.53
2018-10-01T01:08:01.506Z,3.70
2018-10-01T01:13:04.715Z,4.30
2018-10-01T01:18:07.972Z,4.10
2018-10-01T01:23:11.179Z,4.17
2018-10-01T01:28:14.399Z,4.43
2018-10-01T01:33:17.589Z,4.17
2018-10-01T01:38:20.832Z,3.70
2018-10-01T01:43:24.087Z,4.10
2018-10-01T01:48:27.319Z,4.27
2018-10-01T01:53:30.576Z,3.60
2018-10-01T01:58:33.827Z,4.37
2018-10-01T02:03:37.080Z,3.50
2018-10-01T02:08:40.316Z,3.87
2018-10-01T02:13:43.532Z,4.27
2018-10-01T02:18:46.996Z,3.50
2018-10-01T02:23:50.274Z,3.70
2018-10-01T02:28:53.491Z,4.13
2018-10-01T02:33:56.717Z,3.70
2018-10-01T02:39:00.024Z,2.90
2018-10-01T02:44:03.287Z,3.23
2018-10-01T02:49:06.552Z,4.50
2018-10-01T02:54:15.223Z,3.33
2018-10-01T02:59:18.435Z,3.57
2018-10-01T03:04:21.695Z,3.37
2018-10-01T03:09:24.927Z,2.93
2018-10-01T03:14:28.168Z,4.13
2018-10-01T03:19:31.440Z,4.27
2018-10-01T03:24:34.672Z,3.80
2018-10-01T03:29:37.885Z,3.60
2018-10-01T03:34:41.129Z,3.77
2018-10-01T03:39:44.407Z,3.10
2018-10-01T03:44:47.664Z,4.40
2018-10-01T03:49:50.900Z,3.40
2018-10-01T03:54:54.107Z,3.00
2018-10-01T03:59:57.300Z,2.93
2018-10-01T04:05:00.503Z,2.53
2018-10-01T04:10:03.712Z,2.73
2018-10-01T04:15:06.929Z,2.30
2018-10-01T04:20:10.143Z,2.57
2018-10-01T04:25:13.347Z,2.27
2018-10-01T04:30:16.580Z,1.90
2018-10-01T04:35:19.771Z,2.80
2018-10-01T04:40:22.975Z,2.70
2018-10-01T04:45:26.207Z,2.40
2018-10-01T04:50:29.427Z,2.63
2018-10-01T04:55:32.641Z,2.60
2018-10-01T05:00:35.851Z,2.37
2018-10-01T05:05:39.060Z,2.40
2018-10-01T05:10:42.266Z,2.60
2018-10-01T05:15:45.523Z,2.70
2018-10-01T05:20:48.743Z,1.97
2018-10-01T05:25:51.959Z,2.27
2018-10-01T05:30:55.179Z,2.77
2018-10-01T05:35:58.383Z,2.70
2018-10-01T05:41:01.601Z,2.23
2018-10-01T05:46:04.851Z,2.70
2018-10-01T05:51:08.069Z,2.43
2018-10-01T05:56:11.319Z,1.80
2018-10-01T06:01:14.557Z,2.27
2018-10-01T06:06:17.810Z,2.50
2018-10-01T06:11:21.044Z,2.67
2018-10-01T06:16:24.263Z,2.70
2018-10-01T06:21:27.516Z,2.60
2018-10-01T06:26:30.762Z,2.23
2018-10-01T06:31:33.989Z,2.30
2018-10-01T06:36:37.263Z,2.27
2018-10-01T06:41:40.644Z,1.77
2018-10-01T06:46:43.729Z,2.77
2018-10-01T06:51:46.951Z,2.63
2018-10-01T06:56:50.220Z,2.53
2018-10-01T07:01:53.480Z,2.40
2018-10-01T07:06:56.816Z,2.77
2018-10-01T07:12:00.045Z,2.23
2018-10-01T07:17:03.351Z,2.67
2018-10-01T07:22:06.535Z,2.80
2018-10-01T07:27:09.768Z,2.60
2018-10-01T07:32:12.999Z,2.63
2018-10-01T07:37:16.238Z,2.13
2018-10-01T07:42:19.595Z,2.60
2018-10-01T07:47:22.832Z,2.27
2018-10-01T07:52:26.060Z,2.30
2018-10-01T07:57:29.378Z,2.67
2018-10-01T08:02:32.620Z,2.40
2018-10-01T08:07:35.808Z,2.53
2018-10-01T08:12:39.038Z,2.63
2018-10-01T08:17:42.268Z,2.20
2018-10-01T08:22:45.551Z,1.57
2018-10-01T08:27:48.855Z,1.87
2018-10-01T08:32:52.100Z,2.07
2018-10-01T08:37:55.422Z,2.00
2018-10-01T08:42:58.573Z,2.90
2018-10-01T08:48:01.819Z,2.33
2018-10-01T08:53:17.380Z,2.67
2018-10-01T08:58:20.543Z,1.70
2018-10-01T09:03:23.779Z,2.17
2018-10-01T09:08:27.233Z,1.90
2018-10-01T09:13:30.451Z,1.33
2018-10-01T09:18:33.692Z,1.40
2018-10-01T09:23:37.009Z,1.50
2018-10-01T09:28:40.203Z,1.47
2018-10-01T09:33:43.439Z,1.50
2018-10-01T09:38:46.687Z,1.50
2018-10-01T09:43:49.919Z,1.50
2018-10-01T09:48:53.183Z,1.60
2018-10-01T09:53:56.400Z,1.07
2018-10-01T09:58:59.596Z,1.47
2018-10-01T10:04:02.869Z,1.53
2018-10-01T10:09:08.747Z,1.00
2018-10-01T10:14:12.015Z,1.50
2018-10-01T10:19:15.171Z,1.07
2018-10-01T10:24:18.379Z,1.00
2018-10-01T10:29:21.587Z,1.10
2018-10-01T10:34:24.863Z,1.00
2018-10-01T10:39:28.020Z,1.10
2018-10-01T10:44:31.234Z,0.90
2018-10-01T10:49:34.450Z,1.73
2018-10-01T10:54:37.655Z,1.30
2018-10-01T10:59:40.859Z,1.40
2018-10-01T11:04:44.112Z,1.27
2018-10-01T11:09:47.332Z,1.10
2018-10-01T11:14:50.682Z,1.23
2018-10-01T11:19:53.825Z,1.20
2018-10-01T11:24:57.004Z,0.97
2018-10-01T11:30:00.216Z,1.00
2018-10-01T11:35:03.474Z,0.90
2018-10-01T11:40:07.508Z,0.70
2018-10-01T11:45:10.826Z,1.00
2018-10-01T11:50:13.952Z,1.03
2018-10-01T11:55:17.148Z,0.90
2018-10-01T12:00:20.452Z,1.10
2018-10-01T12:05:23.627Z,1.43
2018-10-01T12:10:26.849Z,1.10
2018-10-01T12:15:30.122Z,0.77
2018-10-01T12:20:33.411Z,0.83
2018-10-01T12:25:36.740Z,1.10
2018-10-01T12:30:39.921Z,1.10
2018-10-01T12:35:43.140Z,0.90
2018-10-01T12:40:46.351Z,0.87
2018-10-01T12:45:49.595Z,0.60
2018-10-01T12:50:53.516Z,0.80
2018-10-01T12:55:56.763Z,1.20
2018-10-01T13:01:00.003Z,0.90
2018-10-01T13:06:03.407Z,1.07
2018-10-01T13:11:06.629Z,1.00
2018-10-01T13:16:09.963Z,0.70
2018-10-01T13:21:13.191Z,0.97
2018-10-01T13:26:16.439Z,1.03
2018-10-01T13:31:19.691Z,0.80
2018-10-01T13:36:23.261Z,0.90
2018-10-01T13:41:26.540Z,0.90
2018-10-01T13:46:29.784Z,1.00
2018-10-01T13:51:33.011Z,1.00
2018-10-01T13:56:36.231Z,0.60
2018-10-01T14:01:39.535Z,0.60
2018-10-01T14:06:45.489Z,1.20
2018-10-01T14:11:48.687Z,1.10
2018-10-01T14:16:51.939Z,0.77
2018-10-01T14:21:55.140Z,0.97
2018-10-01T14:26:58.424Z,0.87
2018-10-01T14:32:01.652Z,0.60
2018-10-01T14:37:04.900Z,0.73
2018-10-01T14:42:08.216Z,0.70
2018-10-01T14:47:11.535Z,1.10
2018-10-01T14:52:14.816Z,1.13
2018-10-01T14:57:18.235Z,1.03
2018-10-01T15:02:21.496Z,0.97
2018-10-01T15:07:24.747Z,1.30
2018-10-01T15:12:28.055Z,1.30
2018-10-01T15:17:31.260Z,1.40
2018-10-01T15:22:34.520Z,2.50
2018-10-01T15:27:37.872Z,1.43
2018-10-01T15:32:41.222Z,1.73
2018-10-01T15:37:44.487Z,1.70
2018-10-01T15:42:47.838Z,2.10
2018-10-01T15:47:51.084Z,1.77
2018-10-01T15:52:54.337Z,1.80
2018-10-01T15:57:57.609Z,1.20
2018-10-01T16:03:00.896Z,1.57
2018-10-01T16:08:04.136Z,1.50
2018-10-01T16:13:07.355Z,1.47
2018-10-01T16:18:10.664Z,1.00
2018-10-01T16:23:13.835Z,0.97
2018-10-01T16:28:17.108Z,4.53
2018-10-01T16:33:20.387Z,1.20
2018-10-01T16:38:23.644Z,1.23
2018-10-01T16:43:26.964Z,1.70
2018-10-01T16:48:30.257Z,1.10
2018-10-01T16:53:33.652Z,1.17
2018-10-01T16:58:36.906Z,1.30
2018-10-01T17:03:42.366Z,1.13
2018-10-01T17:08:45.632Z,1.40
2018-10-01T17:13:48.947Z,1.50
2018-10-01T17:18:52.187Z,1.20
2018-10-01T17:23:55.435Z,1.50
2018-10-01T17:29:03.151Z,1.27
2018-10-01T17:34:06.539Z,1.10
2018-10-01T17:39:10.477Z,1.20
2018-10-01T17:44:13.767Z,1.20
2018-10-01T17:49:17.036Z,1.30
2018-10-01T17:54:20.338Z,0.87
2018-10-01T17:59:23.535Z,1.17
2018-10-01T18:04:26.857Z,1.23
2018-10-01T18:09:30.052Z,1.07
2018-10-01T18:14:33.277Z,1.33
2018-10-01T18:19:36.517Z,0.97
2018-10-01T18:24:39.787Z,1.20
2018-10-01T18:29:43.064Z,1.75
2018-10-01T18:34:46.361Z,1.17
2018-10-01T18:39:49.655Z,1.30
2018-10-01T18:44:52.928Z,1.33
2018-10-01T18:49:56.177Z,1.00
2018-10-01T18:54:59.430Z,1.30
2018-10-01T19:00:02.702Z,0.90
2018-10-01T19:05:06.628Z,1.50
2018-10-01T19:10:10.391Z,1.13
2018-10-01T19:15:13.620Z,1.50
2018-10-01T19:20:16.867Z,1.40
2018-10-01T19:25:20.073Z,1.70
2018-10-01T19:30:23.304Z,1.67
2018-10-01T19:35:26.602Z,1.37
2018-10-01T19:40:29.790Z,1.50
2018-10-01T19:45:33.151Z,1.47
2018-10-01T19:50:36.406Z,1.80
2018-10-01T19:55:39.634Z,1.23
2018-10-01T20:00:43.159Z,1.70
2018-10-01T20:05:46.231Z,1.27
2018-10-01T20:10:49.498Z,1.33
2018-10-01T20:15:52.665Z,1.17
2018-10-01T20:20:55.895Z,0.90
2018-10-01T20:25:59.103Z,1.90
2018-10-01T20:31:02.269Z,1.60
2018-10-01T20:36:05.692Z,1.50
2018-10-01T20:41:09.002Z,1.83
2018-10-01T20:46:12.195Z,1.80
2018-10-01T20:51:15.408Z,1.53
2018-10-01T20:56:18.724Z,1.50
2018-10-01T21:01:22.004Z,1.27
2018-10-01T21:06:25.215Z,1.50
2018-10-01T21:11:28.403Z,1.57
2018-10-01T21:16:31.618Z,1.63
2018-10-01T21:21:34.816Z,1.50
2018-10-01T21:26:38.015Z,2.03
2018-10-01T21:31:41.240Z,2.27
2018-10-01T21:36:44.496Z,1.40
2018-10-01T21:41:47.779Z,1.80
2018-10-01T21:46:50.980Z,1.50
2018-10-01T21:51:54.271Z,2.13
2018-10-01T21:56:57.540Z,1.30
2018-10-01T22:02:00.784Z,1.80
2018-10-01T22:07:04.036Z,1.83
2018-10-01T22:12:07.279Z,1.67
2018-10-01T22:17:10.966Z,1.60
2018-10-01T22:22:14.180Z,1.40
2018-10-01T22:27:17.422Z,1.70
2018-10-01T22:32:20.659Z,1.70
2018-10-01T22:37:23.900Z,1.73
2018-10-01T22:42:27.140Z,1.97
2018-10-01T22:47:30.358Z,1.93
2018-10-01T22:52:33.575Z,1.90
2018-10-01T22:57:36.815Z,2.10
2018-10-01T23:02:40.059Z,1.83
2018-10-01T23:07:43.325Z,2.10
2018-10-01T23:12:46.544Z,1.83
2018-10-01T23:17:49.771Z,1.70
2018-10-01T23:22:53.608Z,2.30
2018-10-01T23:27:56.845Z,2.10
2018-10-01T23:33:00.103Z,1.90
2018-10-01T23:38:03.319Z,1.87
2018-10-01T23:43:06.609Z,1.97
2018-10-01T23:48:09.864Z,2.10
2018-10-01T23:53:13.184Z,2.30
2018-10-01T23:58:16.426Z,3.43
